createdAt,value
2017-11-29T00:02:10.452Z,-3.30
2017-11-29T00:04:36.737Z,-3.40
2017-11-29T00:07:03.650Z,-3.40
2017-11-29T00:09:29.913Z,-3.50
2017-11-29T00:11:56.152Z,-3.40
2017-11-29T00:14:22.362Z,-3.50
2017-11-29T00:16:48.582Z,-3.60
2017-11-29T00:19:15.497Z,-3.60
2017-11-29T00:21:41.723Z,-3.60
2017-11-29T00:24:08.016Z,-3.70
2017-11-29T00:26:34.206Z,-3.70
2017-11-29T00:29:01.251Z,-3.80
2017-11-29T00:31:28.195Z,-3.80
2017-11-29T00:33:55.116Z,-3.80
2017-11-29T00:36:21.346Z,-3.90
2017-11-29T00:38:47.593Z,-3.90
2017-11-29T00:41:14.604Z,-4.00
2017-11-29T00:43:40.846Z,-4.00
2017-11-29T00:46:07.869Z,-4.10
2017-11-29T00:48:34.138Z,-4.10
2017-11-29T00:51:01.065Z,-4.10
2017-11-29T00:53:28.060Z,-4.00
2017-11-29T00:55:54.347Z,-4.00
2017-11-29T00:58:21.323Z,-4.10
2017-11-29T01:00:47.488Z,-4.10
2017-11-29T01:03:13.803Z,-4.00
2017-11-29T01:05:40.023Z,-4.00
2017-11-29T01:08:06.400Z,-4.00
2017-11-29T01:10:33.388Z,-3.90
2017-11-29T01:12:59.692Z,-4.00
2017-11-29T01:15:25.858Z,-3.90
2017-11-29T01:17:52.049Z,-3.90
2017-11-29T01:20:18.327Z,-3.90
2017-11-29T01:22:44.587Z,-3.90
2017-11-29T01:25:11.824Z,-3.90
2017-11-29T01:27:38.718Z,-3.90
2017-11-29T01:30:05.052Z,-4.00
2017-11-29T01:32:31.268Z,-4.00
2017-11-29T01:34:57.419Z,-4.00
2017-11-29T01:37:23.608Z,-4.00
2017-11-29T01:39:49.849Z,-4.00
2017-11-29T01:42:16.101Z,-4.00
2017-11-29T01:44:42.352Z,-4.00
2017-11-29T01:47:08.592Z,-4.00
2017-11-29T01:49:35.560Z,-4.10
2017-11-29T01:52:01.851Z,-4.10
2017-11-29T01:54:28.782Z,-4.20
2017-11-29T01:56:54.988Z,-4.20
2017-11-29T01:59:21.236Z,-4.20
2017-11-29T02:01:47.657Z,-4.30
2017-11-29T02:04:13.855Z,-4.30
2017-11-29T02:06:39.974Z,-4.30
2017-11-29T02:09:06.173Z,-4.30
2017-11-29T02:11:33.225Z,-4.40
2017-11-29T02:13:59.690Z,-4.40
2017-11-29T02:16:25.818Z,-4.40
2017-11-29T02:18:52.048Z,-4.50
2017-11-29T02:21:18.251Z,-4.50
2017-11-29T02:23:44.488Z,-4.50
2017-11-29T02:26:10.741Z,-4.50
2017-11-29T02:28:36.918Z,-4.50
2017-11-29T02:31:03.277Z,-4.60
2017-11-29T02:33:29.483Z,-4.60
2017-11-29T02:35:55.762Z,-4.60
2017-11-29T02:38:21.978Z,-4.60
2017-11-29T02:41:00.558Z,-4.70
2017-11-29T02:43:26.813Z,-4.70
2017-11-29T02:45:52.978Z,-4.70
2017-11-29T02:48:19.953Z,-4.80
2017-11-29T02:50:46.214Z,-4.80
2017-11-29T02:53:12.555Z,-4.50
2017-11-29T02:55:38.766Z,-4.30
2017-11-29T02:58:04.975Z,-4.30
2017-11-29T03:00:31.157Z,-4.20
2017-11-29T03:02:58.069Z,-4.20
2017-11-29T03:05:24.275Z,-4.30
2017-11-29T03:07:50.621Z,-4.30
2017-11-29T03:10:16.849Z,-4.40
2017-11-29T03:12:43.030Z,-4.50
2017-11-29T03:15:09.218Z,-4.50
2017-11-29T03:17:36.173Z,-4.50
2017-11-29T03:20:03.191Z,-4.60
2017-11-29T03:22:30.258Z,-4.60
2017-11-29T03:24:57.172Z,-4.60
2017-11-29T03:27:23.378Z,-4.60
2017-11-29T03:29:49.501Z,-4.60
2017-11-29T03:32:15.784Z,-4.60
2017-11-29T03:34:42.714Z,-4.70
2017-11-29T03:37:09.857Z,-4.70
2017-11-29T03:39:36.078Z,-4.70
2017-11-29T03:42:02.353Z,-4.70
2017-11-29T03:44:28.580Z,-4.80
2017-11-29T03:46:54.866Z,-4.80
2017-11-29T03:49:21.100Z,-4.80
2017-11-29T03:51:48.091Z,-4.80
2017-11-29T03:54:14.322Z,-4.80
2017-11-29T03:56:40.511Z,-4.80
2017-11-29T03:59:07.471Z,-4.80
2017-11-29T04:01:33.661Z,-4.90
2017-11-29T04:03:59.852Z,-4.80
2017-11-29T04:06:26.147Z,-4.80
2017-11-29T04:08:52.330Z,-4.90
2017-11-29T04:11:18.625Z,-4.80
2017-11-29T04:13:45.121Z,-4.80
2017-11-29T04:16:12.265Z,-4.90
2017-11-29T04:18:39.261Z,-4.80
2017-11-29T04:21:05.471Z,-4.90
2017-11-29T04:23:31.832Z,-4.80
2017-11-29T04:25:57.942Z,-4.80
2017-11-29T04:28:24.102Z,-4.90
2017-11-29T04:30:50.303Z,-4.90
2017-11-29T04:33:16.464Z,-4.90
2017-11-29T04:35:43.369Z,-4.90
2017-11-29T04:38:09.621Z,-4.90
2017-11-29T04:40:35.936Z,-4.80
2017-11-29T04:43:02.116Z,-4.90
2017-11-29T04:45:28.349Z,-4.90
2017-11-29T04:47:54.514Z,-4.90
2017-11-29T04:50:20.805Z,-4.90
2017-11-29T04:52:47.024Z,-4.90
2017-11-29T04:55:13.156Z,-4.90
2017-11-29T04:57:39.441Z,-4.90
2017-11-29T05:00:06.526Z,-4.80
2017-11-29T05:02:32.792Z,-4.80
2017-11-29T05:04:58.945Z,-4.80
2017-11-29T05:07:25.909Z,-4.80
2017-11-29T05:09:52.082Z,-4.80
2017-11-29T05:12:18.421Z,-4.80
2017-11-29T05:14:44.607Z,-4.70
2017-11-29T05:17:10.939Z,-4.70
2017-11-29T05:19:37.226Z,-4.60
2017-11-29T05:22:04.359Z,-4.60
2017-11-29T05:24:31.246Z,-4.60
2017-11-29T05:26:57.530Z,-4.60
2017-11-29T05:29:23.871Z,-4.50
2017-11-29T05:31:51.025Z,-4.50
2017-11-29T05:34:17.998Z,-4.50
2017-11-29T05:36:44.149Z,-4.50
2017-11-29T05:39:10.542Z,-4.50
2017-11-29T05:41:36.745Z,-4.40
2017-11-29T05:44:03.796Z,-4.40
2017-11-29T05:46:30.011Z,-4.40
2017-11-29T05:48:57.014Z,-4.40
2017-11-29T05:51:23.337Z,-4.40
2017-11-29T05:53:49.545Z,-4.40
2017-11-29T05:56:16.643Z,-4.30
2017-11-29T05:58:42.855Z,-4.30
2017-11-29T06:01:09.271Z,-4.30
2017-11-29T06:03:35.968Z,-4.30
2017-11-29T06:06:02.230Z,-4.20
2017-11-29T06:08:28.501Z,-4.20
2017-11-29T06:10:55.584Z,-4.20
2017-11-29T06:13:21.877Z,-4.20
2017-11-29T06:15:48.865Z,-4.10
2017-11-29T06:18:15.054Z,-4.20
2017-11-29T06:20:42.000Z,-4.10
2017-11-29T06:23:09.030Z,-4.00
2017-11-29T06:25:35.380Z,-4.00
2017-11-29T06:28:02.560Z,-4.00
2017-11-29T06:30:28.800Z,-4.00
2017-11-29T06:32:55.176Z,-3.90
2017-11-29T06:35:22.198Z,-3.90
2017-11-29T06:37:48.534Z,-3.90
2017-11-29T06:40:14.736Z,-3.80
2017-11-29T06:42:41.071Z,-3.80
2017-11-29T06:45:07.278Z,-3.80
2017-11-29T06:47:33.421Z,-3.80
2017-11-29T06:49:59.707Z,-3.80
2017-11-29T06:52:26.042Z,-3.70
2017-11-29T06:54:52.616Z,-3.60
2017-11-29T06:57:18.806Z,-3.60
2017-11-29T06:59:45.057Z,-3.50
2017-11-29T07:02:11.345Z,-3.50
2017-11-29T07:04:37.577Z,-3.50
2017-11-29T07:07:04.071Z,-3.50
2017-11-29T07:09:30.442Z,-3.50
2017-11-29T07:11:56.634Z,-3.50
2017-11-29T07:14:22.931Z,-3.40
2017-11-29T07:16:49.048Z,-3.40
2017-11-29T07:19:15.249Z,-3.40
2017-11-29T07:21:41.481Z,-3.30
2017-11-29T07:24:07.723Z,-3.30
2017-11-29T07:26:33.898Z,-3.30
2017-11-29T07:29:00.854Z,-3.20
2017-11-29T07:31:27.814Z,-3.20
2017-11-29T07:33:54.023Z,-3.20
2017-11-29T07:36:20.962Z,-3.10
2017-11-29T07:38:48.043Z,-3.10
2017-11-29T07:41:14.337Z,-3.10
2017-11-29T07:43:41.264Z,-3.00
2017-11-29T07:46:07.382Z,-3.00
2017-11-29T07:48:33.655Z,-2.90
2017-11-29T07:50:59.948Z,-2.80
2017-11-29T07:53:26.912Z,-2.70
2017-11-29T07:55:53.088Z,-2.70
2017-11-29T07:58:19.267Z,-2.60
2017-11-29T08:00:45.447Z,-2.60
2017-11-29T08:03:11.605Z,-2.50
2017-11-29T08:05:38.491Z,-2.50
2017-11-29T08:08:04.685Z,-2.50
2017-11-29T08:10:31.011Z,-2.40
2017-11-29T08:12:57.319Z,-2.30
2017-11-29T08:15:24.251Z,-2.10
2017-11-29T08:17:50.443Z,-2.10
2017-11-29T08:20:16.693Z,-2.00
2017-11-29T08:22:42.839Z,-2.00
2017-11-29T08:25:09.120Z,-1.90
2017-11-29T08:27:35.329Z,-1.90
2017-11-29T08:30:01.544Z,-1.80
2017-11-29T08:32:27.723Z,-1.70
2017-11-29T08:34:53.963Z,-1.60
2017-11-29T08:37:20.096Z,-1.50
2017-11-29T08:39:47.092Z,-1.40
2017-11-29T08:42:13.326Z,-1.40
2017-11-29T08:44:39.500Z,-1.30
2017-11-29T08:47:06.517Z,-1.10
2017-11-29T08:49:32.673Z,-1.10
2017-11-29T08:51:59.627Z,-0.60
2017-11-29T08:54:25.834Z,-0.70
2017-11-29T08:56:52.858Z,-0.30
2017-11-29T08:59:19.053Z,-0.30
2017-11-29T09:01:45.218Z,-0.10
2017-11-29T09:04:11.479Z,0.00
2017-11-29T09:06:37.770Z,0.10
2017-11-29T09:09:04.232Z,0.20
2017-11-29T09:11:31.202Z,0.40
2017-11-29T09:13:57.735Z,0.40
2017-11-29T09:16:23.928Z,0.50
2017-11-29T09:18:50.849Z,0.60
2017-11-29T09:21:17.135Z,0.60
2017-11-29T09:23:43.343Z,0.60
2017-11-29T09:26:09.656Z,0.70
2017-11-29T09:28:36.624Z,0.80
2017-11-29T09:31:02.991Z,0.80
2017-11-29T09:33:29.104Z,0.90
2017-11-29T09:35:55.237Z,1.00
2017-11-29T09:38:21.686Z,1.00
2017-11-29T09:40:48.785Z,1.10
2017-11-29T09:43:15.053Z,1.10
2017-11-29T09:45:41.263Z,1.20
2017-11-29T09:48:07.562Z,1.20
2017-11-29T09:50:33.758Z,1.20
2017-11-29T09:53:00.650Z,1.40
2017-11-29T09:55:26.828Z,1.40
2017-11-29T09:57:53.743Z,1.60
2017-11-29T10:00:19.922Z,1.60
2017-11-29T10:02:46.164Z,1.70
2017-11-29T10:05:12.364Z,1.90
2017-11-29T10:07:38.584Z,2.10
2017-11-29T10:10:04.885Z,2.20
2017-11-29T10:12:31.292Z,2.40
2017-11-29T10:14:57.597Z,2.50
2017-11-29T10:17:23.871Z,2.70
2017-11-29T10:19:50.071Z,2.80
2017-11-29T10:22:16.249Z,2.90
2017-11-29T10:24:43.165Z,3.00
2017-11-29T10:27:09.377Z,2.90
2017-11-29T10:29:36.076Z,3.00
2017-11-29T10:32:02.297Z,3.10
2017-11-29T10:34:28.554Z,3.10
2017-11-29T10:36:54.709Z,3.10
2017-11-29T10:39:20.857Z,3.10
2017-11-29T10:41:47.732Z,3.20
2017-11-29T10:44:14.019Z,3.20
2017-11-29T10:46:40.998Z,3.30
2017-11-29T10:49:07.244Z,3.30
2017-11-29T10:51:33.499Z,3.30
2017-11-29T10:53:59.635Z,3.40
2017-11-29T10:56:25.837Z,3.60
2017-11-29T10:58:52.106Z,3.80
2017-11-29T11:01:19.170Z,3.90
2017-11-29T11:03:45.380Z,3.90
2017-11-29T11:06:12.321Z,4.00
2017-11-29T11:08:39.251Z,4.10
2017-11-29T11:11:06.313Z,4.10
2017-11-29T11:13:33.259Z,4.20
2017-11-29T11:16:00.211Z,4.10
2017-11-29T11:18:26.427Z,4.10
2017-11-29T11:20:52.619Z,4.00
2017-11-29T11:23:18.850Z,3.90
2017-11-29T11:25:45.186Z,3.80
2017-11-29T11:28:12.282Z,3.80
2017-11-29T11:30:38.634Z,3.80
2017-11-29T11:33:04.897Z,3.70
2017-11-29T11:35:31.910Z,3.60
2017-11-29T11:37:58.128Z,3.60
2017-11-29T11:40:24.378Z,3.50
2017-11-29T11:42:50.617Z,3.50
2017-11-29T11:45:17.602Z,3.40
2017-11-29T11:47:43.857Z,3.30
2017-11-29T11:50:10.067Z,3.30
2017-11-29T11:52:36.324Z,3.20
2017-11-29T11:55:02.614Z,3.20
2017-11-29T11:57:28.736Z,3.10
2017-11-29T11:59:55.027Z,3.10
2017-11-29T12:02:22.034Z,3.00
2017-11-29T12:04:48.271Z,3.00
2017-11-29T12:07:14.554Z,3.10
2017-11-29T12:09:40.737Z,3.10
2017-11-29T12:12:06.941Z,3.00
2017-11-29T12:14:34.451Z,3.00
2017-11-29T12:17:00.706Z,2.90
2017-11-29T12:19:26.970Z,2.90
2017-11-29T12:21:53.302Z,2.90
2017-11-29T12:24:19.670Z,2.90
2017-11-29T12:26:45.881Z,2.90
2017-11-29T12:29:12.971Z,3.00
2017-11-29T12:31:39.157Z,2.90
2017-11-29T12:34:06.096Z,3.00
2017-11-29T12:36:33.021Z,3.00
2017-11-29T12:38:59.196Z,2.90
2017-11-29T12:41:25.416Z,3.00
2017-11-29T12:43:51.712Z,3.00
2017-11-29T12:46:17.925Z,3.00
2017-11-29T12:48:56.473Z,3.00
2017-11-29T12:51:23.385Z,3.10
2017-11-29T12:53:50.339Z,3.10
2017-11-29T12:56:17.374Z,3.10
2017-11-29T12:58:43.583Z,3.00
2017-11-29T13:01:09.910Z,3.00
2017-11-29T13:03:36.115Z,3.00
2017-11-29T13:06:02.438Z,3.00
2017-11-29T13:08:28.608Z,3.10
2017-11-29T13:10:54.934Z,3.00
2017-11-29T13:13:21.137Z,3.00
2017-11-29T13:15:47.359Z,3.00
2017-11-29T13:18:13.597Z,3.00
2017-11-29T13:20:39.846Z,3.00
2017-11-29T13:23:06.041Z,3.00
2017-11-29T13:25:32.207Z,2.90
2017-11-29T13:27:58.453Z,2.90
2017-11-29T13:30:24.681Z,2.80
2017-11-29T13:32:50.869Z,2.80
2017-11-29T13:35:17.165Z,2.80
2017-11-29T13:37:43.319Z,2.80
2017-11-29T13:40:09.564Z,2.80
2017-11-29T13:42:35.777Z,2.70
2017-11-29T13:45:02.013Z,2.70
2017-11-29T13:47:28.178Z,2.70
2017-11-29T13:49:54.419Z,2.70
2017-11-29T13:52:20.559Z,2.60
2017-11-29T13:54:46.849Z,2.60
2017-11-29T13:57:13.183Z,2.60
2017-11-29T13:59:39.626Z,2.50
2017-11-29T14:02:05.892Z,2.50
2017-11-29T14:04:32.204Z,2.50
2017-11-29T14:06:58.441Z,2.50
2017-11-29T14:09:24.679Z,2.50
2017-11-29T14:11:50.890Z,2.50
2017-11-29T14:14:17.184Z,2.50
2017-11-29T14:16:43.569Z,2.50
2017-11-29T14:19:09.803Z,2.50
2017-11-29T14:21:36.074Z,2.50
2017-11-29T14:24:02.297Z,2.40
2017-11-29T14:26:28.527Z,2.40
2017-11-29T14:28:54.773Z,2.40
2017-11-29T14:31:21.123Z,2.40
2017-11-29T14:33:47.365Z,2.40
2017-11-29T14:36:15.097Z,2.30
2017-11-29T14:38:41.293Z,2.30
2017-11-29T14:41:07.606Z,2.30
2017-11-29T14:43:34.620Z,2.30
2017-11-29T14:46:00.802Z,2.30
2017-11-29T14:48:27.344Z,2.30
2017-11-29T14:50:53.512Z,2.30
2017-11-29T14:53:19.755Z,2.30
2017-11-29T14:55:46.662Z,2.30
2017-11-29T14:58:14.468Z,2.30
2017-11-29T15:00:40.670Z,2.40
2017-11-29T15:03:06.928Z,2.30
2017-11-29T15:05:33.843Z,2.30
2017-11-29T15:08:00.075Z,2.30
2017-11-29T15:10:26.313Z,2.30
2017-11-29T15:12:53.301Z,2.20
2017-11-29T15:15:19.430Z,2.10
2017-11-29T15:17:45.615Z,2.20
2017-11-29T15:20:12.591Z,2.10
2017-11-29T15:22:38.816Z,2.00
2017-11-29T15:25:04.957Z,2.00
2017-11-29T15:27:32.545Z,2.00
2017-11-29T15:29:58.677Z,2.00
2017-11-29T15:32:25.115Z,2.00
2017-11-29T15:34:52.117Z,1.90
2017-11-29T15:37:18.425Z,1.90
2017-11-29T15:39:44.916Z,1.90
2017-11-29T15:42:11.998Z,1.80
2017-11-29T15:44:38.303Z,1.80
2017-11-29T15:47:05.505Z,1.90
2017-11-29T15:49:31.770Z,1.80
2017-11-29T15:51:58.907Z,1.80
2017-11-29T15:54:25.186Z,1.80
2017-11-29T15:56:52.454Z,1.70
2017-11-29T15:59:18.803Z,1.70
2017-11-29T16:01:45.223Z,1.80
2017-11-29T16:04:11.660Z,1.80
2017-11-29T16:06:38.088Z,1.80
2017-11-29T16:09:04.281Z,1.70
2017-11-29T16:11:30.639Z,1.70
2017-11-29T16:13:56.910Z,1.70
2017-11-29T16:16:23.845Z,1.70
2017-11-29T16:18:50.124Z,1.60
2017-11-29T16:21:16.555Z,1.70
2017-11-29T16:23:43.058Z,1.70
2017-11-29T16:26:10.208Z,1.70
2017-11-29T16:28:36.743Z,1.60
2017-11-29T16:31:03.075Z,1.60
2017-11-29T16:33:29.361Z,1.60
2017-11-29T16:35:55.608Z,1.60
2017-11-29T16:38:22.760Z,1.60
2017-11-29T16:40:49.092Z,1.50
2017-11-29T16:43:16.055Z,1.60
2017-11-29T16:45:42.357Z,1.50
2017-11-29T16:48:08.573Z,1.60
2017-11-29T16:50:35.046Z,1.50
2017-11-29T16:53:01.301Z,1.50
2017-11-29T16:55:27.759Z,1.50
2017-11-29T16:57:54.014Z,1.50
2017-11-29T17:00:21.016Z,1.50
2017-11-29T17:02:47.282Z,1.50
2017-11-29T17:05:14.277Z,1.50
2017-11-29T17:07:40.603Z,1.50
2017-11-29T17:10:06.877Z,1.50
2017-11-29T17:12:35.016Z,1.40
2017-11-29T17:15:01.301Z,1.40
2017-11-29T17:17:27.706Z,1.40
2017-11-29T17:19:54.247Z,1.30
2017-11-29T17:22:21.444Z,1.30
2017-11-29T17:24:47.889Z,1.30
2017-11-29T17:27:14.104Z,1.30
2017-11-29T17:29:52.746Z,1.20
2017-11-29T17:32:19.141Z,1.20
2017-11-29T17:34:45.365Z,1.20
2017-11-29T17:37:11.713Z,1.20
2017-11-29T17:39:38.154Z,1.20
2017-11-29T17:42:04.459Z,1.20
2017-11-29T17:44:30.661Z,1.20
2017-11-29T17:46:56.871Z,1.20
2017-11-29T17:49:23.942Z,1.20
2017-11-29T17:51:50.134Z,1.20
2017-11-29T17:54:16.420Z,1.20
2017-11-29T17:56:42.663Z,1.10
2017-11-29T17:59:08.886Z,1.00
2017-11-29T18:01:35.287Z,1.00
2017-11-29T18:04:01.413Z,0.90
2017-11-29T18:06:27.627Z,0.80
2017-11-29T18:08:53.872Z,0.80
2017-11-29T18:11:20.041Z,0.70
2017-11-29T18:13:46.518Z,0.60
2017-11-29T18:16:12.899Z,0.60
2017-11-29T18:18:39.250Z,0.60
2017-11-29T18:21:06.232Z,0.50
2017-11-29T18:23:32.419Z,0.50
2017-11-29T18:25:59.376Z,0.30
2017-11-29T18:28:26.331Z,0.30
2017-11-29T18:30:52.659Z,0.30
2017-11-29T18:33:18.906Z,0.30
2017-11-29T18:35:45.213Z,0.30
2017-11-29T18:38:11.436Z,0.20
2017-11-29T18:40:38.459Z,0.30
2017-11-29T18:43:04.622Z,0.30
2017-11-29T18:45:30.909Z,0.30
2017-11-29T18:47:57.002Z,0.20
2017-11-29T18:50:23.250Z,0.20
2017-11-29T18:52:49.548Z,0.20
2017-11-29T18:55:15.763Z,0.20
2017-11-29T18:57:42.003Z,0.30
2017-11-29T19:00:08.246Z,0.30
2017-11-29T19:02:34.510Z,0.30
2017-11-29T19:05:01.466Z,0.20
2017-11-29T19:07:27.703Z,0.20
2017-11-29T19:09:54.037Z,0.30
2017-11-29T19:12:20.292Z,0.20
2017-11-29T19:14:47.681Z,0.20
2017-11-29T19:17:14.575Z,0.30
2017-11-29T19:19:40.816Z,0.30
2017-11-29T19:22:07.162Z,0.40
2017-11-29T19:24:34.397Z,0.30
2017-11-29T19:27:00.628Z,0.30
2017-11-29T19:29:26.783Z,0.30
2017-11-29T19:31:53.210Z,0.20
2017-11-29T19:34:19.445Z,0.10
2017-11-29T19:36:46.387Z,0.00
2017-11-29T19:39:13.415Z,-0.10
2017-11-29T19:41:40.637Z,-0.20
2017-11-29T19:44:06.942Z,-0.20
2017-11-29T19:46:33.133Z,-0.30
2017-11-29T19:49:00.176Z,-0.40
2017-11-29T19:51:26.479Z,-0.50
2017-11-29T19:53:52.781Z,-0.50
2017-11-29T19:56:19.182Z,-0.60
2017-11-29T19:58:46.329Z,-0.70
2017-11-29T20:01:13.348Z,-0.80
2017-11-29T20:03:39.771Z,-0.80
2017-11-29T20:06:06.037Z,-0.80
2017-11-29T20:08:33.544Z,-1.00
2017-11-29T20:10:59.952Z,-1.00
2017-11-29T20:13:26.163Z,-1.00
2017-11-29T20:15:52.515Z,-1.10
2017-11-29T20:18:18.670Z,-1.10
2017-11-29T20:20:44.857Z,-1.20
2017-11-29T20:23:11.042Z,-1.20
2017-11-29T20:25:38.096Z,-1.20
2017-11-29T20:28:05.328Z,-1.30
2017-11-29T20:30:31.566Z,-1.30
2017-11-29T20:32:58.634Z,-1.40
2017-11-29T20:35:24.865Z,-1.40
2017-11-29T20:37:51.162Z,-1.50
2017-11-29T20:40:17.344Z,-1.50
2017-11-29T20:42:43.645Z,-1.60
2017-11-29T20:45:09.841Z,-1.60
2017-11-29T20:47:36.078Z,-1.70
2017-11-29T20:50:03.173Z,-1.80
2017-11-29T20:52:41.728Z,-1.80
2017-11-29T20:55:08.047Z,-1.70
2017-11-29T20:57:34.383Z,-1.70
2017-11-29T21:00:00.698Z,-1.70
2017-11-29T21:02:27.080Z,-1.70
2017-11-29T21:04:53.302Z,-1.60
2017-11-29T21:07:19.613Z,-1.50
2017-11-29T21:09:46.737Z,-1.60
2017-11-29T21:12:13.862Z,-1.60
2017-11-29T21:14:40.376Z,-1.60
2017-11-29T21:17:06.623Z,-1.70
2017-11-29T21:19:32.794Z,-1.70
2017-11-29T21:21:59.765Z,-1.80
2017-11-29T21:24:26.028Z,-1.90
2017-11-29T21:26:52.383Z,-1.90
2017-11-29T21:29:19.367Z,-2.00
2017-11-29T21:31:45.696Z,-2.00
2017-11-29T21:34:11.896Z,-2.00
2017-11-29T21:36:38.794Z,-2.00
2017-11-29T21:39:05.021Z,-2.00
2017-11-29T21:41:31.246Z,-2.10
2017-11-29T21:43:57.409Z,-2.10
2017-11-29T21:46:24.467Z,-2.30
2017-11-29T21:48:51.425Z,-2.30
2017-11-29T21:51:17.748Z,-2.30
2017-11-29T21:53:43.911Z,-2.30
2017-11-29T21:56:10.080Z,-2.30
2017-11-29T21:58:36.994Z,-2.40
2017-11-29T22:01:03.200Z,-2.40
2017-11-29T22:03:29.608Z,-2.40
2017-11-29T22:05:55.792Z,-2.40
2017-11-29T22:08:22.571Z,-2.30
2017-11-29T22:10:48.816Z,-2.30
2017-11-29T22:13:15.019Z,-2.30
2017-11-29T22:15:41.232Z,-2.30
2017-11-29T22:18:07.752Z,-2.40
2017-11-29T22:20:34.680Z,-2.60
2017-11-29T22:23:00.910Z,-2.60
2017-11-29T22:25:27.144Z,-2.70
2017-11-29T22:27:53.599Z,-2.70
2017-11-29T22:30:20.518Z,-2.80
2017-11-29T22:32:46.854Z,-2.80
2017-11-29T22:35:13.973Z,-3.00
2017-11-29T22:37:40.217Z,-3.00
2017-11-29T22:40:06.487Z,-3.00
2017-11-29T22:42:32.845Z,-3.00
2017-11-29T22:44:59.097Z,-3.10
2017-11-29T22:47:25.213Z,-3.10
2017-11-29T22:49:52.211Z,-3.00
2017-11-29T22:52:18.453Z,-3.00
2017-11-29T22:54:44.680Z,-3.00
2017-11-29T22:57:10.865Z,-3.00
2017-11-29T22:59:44.024Z,-3.00
2017-11-29T23:02:10.327Z,-3.00
2017-11-29T23:04:37.477Z,-3.00
2017-11-29T23:07:03.747Z,-3.10
2017-11-29T23:09:29.967Z,-3.10
2017-11-29T23:11:56.170Z,-3.20
2017-11-29T23:14:22.703Z,-3.20
2017-11-29T23:16:49.184Z,-3.20
2017-11-29T23:19:16.245Z,-3.20
2017-11-29T23:21:42.685Z,-3.30
2017-11-29T23:24:10.019Z,-3.30
2017-11-29T23:26:36.376Z,-3.30
2017-11-29T23:29:02.605Z,-3.30
2017-11-29T23:31:29.000Z,-3.40
2017-11-29T23:33:55.993Z,-3.50
2017-11-29T23:36:22.208Z,-3.50
2017-11-29T23:38:48.432Z,-3.50
2017-11-29T23:41:14.717Z,-3.40
2017-11-29T23:43:41.652Z,-3.50
2017-11-29T23:46:08.617Z,-3.50
2017-11-29T23:48:35.600Z,-3.60
2017-11-29T23:51:01.947Z,-3.60
2017-11-29T23:53:28.281Z,-3.70
2017-11-29T23:55:54.452Z,-3.70
2017-11-29T23:58:20.705Z,-3.70
